📊 Raw Sensor Data
Showing records 33176 to 33200 of 84,758 total
| ID | Distance (ft) | Battery V | Battery A | Int Temp (°F) | Int Humid (%) | Ext Temp (°F) | Solar V | RSSI | SNR | Time Stamp |
|---|---|---|---|---|---|---|---|---|---|---|
| 51595 | 14.6 | 4.01 | 5 | 79 | 42 | 75 | 5.10 | -72 | 8 | 09/10/2025 11:15 AM |
| 51594 | 14.6 | 4.01 | 5 | 77 | 42 | 75 | 5.10 | -72 | 8 | 09/10/2025 11:00 AM |
| 51593 | 14.6 | 4.01 | 5 | 75 | 43 | 73 | 5.10 | -72 | 8 | 09/10/2025 10:45 AM |
| 51592 | 14.6 | 4.01 | 5 | 73 | 43 | 71 | 5.10 | -72 | 8 | 09/10/2025 10:30 AM |
| 51591 | 14.6 | 4.13 | 73 | 72 | 43 | 69 | 4.50 | -72 | 8 | 09/10/2025 10:15 AM |
| 51590 | 14.6 | 4.00 | 0 | 73 | 42 | 70 | 5.10 | -72 | 8 | 09/10/2025 10:00 AM |
| 51589 | 14.6 | 4.00 | 0 | 73 | 42 | 71 | 5.10 | -73 | 8 | 09/10/2025 09:45 AM |
| 51588 | 14.7 | 4.00 | 0 | 72 | 41 | 71 | 5.10 | -72 | 7 | 09/10/2025 09:30 AM |
| 51587 | 14.6 | 4.00 | 0 | 70 | 41 | 72 | 5.10 | -72 | 8 | 09/10/2025 09:15 AM |
| 51586 | 14.7 | 4.00 | 6 | 69 | 40 | 71 | 5.10 | -71 | 8 | 09/10/2025 09:00 AM |
| 51585 | 14.7 | 4.00 | 0 | 67 | 41 | 74 | 5.10 | -66 | 8 | 09/10/2025 08:45 AM |
| 51584 | 14.7 | 4.14 | 5 | 65 | 42 | 73 | 5.10 | -67 | 8 | 09/10/2025 08:30 AM |
| 51583 | 14.5 | 4.14 | 5 | 63 | 42 | 70 | 5.10 | -67 | 8 | 09/10/2025 08:15 AM |
| 51582 | 14.5 | 4.01 | 0 | 62 | 42 | 71 | 5.10 | -68 | 8 | 09/10/2025 08:00 AM |
| 51581 | 14.5 | 4.09 | 60 | 61 | 42 | 69 | 4.50 | -67 | 8 | 09/10/2025 07:45 AM |
| 51580 | 14.5 | 4.07 | 16 | 59 | 43 | 66 | 4.50 | -66 | 8 | 09/10/2025 07:30 AM |
| 51579 | 13.4 | 4.01 | 8 | 58 | 43 | 62 | 4.50 | -66 | 8 | 09/10/2025 07:15 AM |
| 51578 | 14.5 | 3.93 | -6 | 57 | 43 | 59 | 4.60 | -66 | 8 | 09/10/2025 07:00 AM |
| 51577 | 14.5 | 3.97 | -10 | 57 | 43 | 58 | 4.30 | -67 | 8 | 09/10/2025 06:45 AM |
| 51576 | 14.8 | 3.93 | -5 | 58 | 43 | 58 | 0.90 | -66 | 8 | 09/10/2025 06:30 AM |
| 51575 | 14.5 | 3.93 | -5 | 58 | 43 | 59 | 0.00 | -66 | 8 | 09/10/2025 06:15 AM |
| 51574 | 14.5 | 3.93 | -5 | 58 | 43 | 59 | 0.00 | -67 | 8 | 09/10/2025 06:00 AM |
| 51573 | 14.5 | 3.93 | -5 | 57 | 43 | 59 | 0.00 | -67 | 8 | 09/10/2025 05:45 AM |
| 51572 | 14.5 | 3.99 | -5 | 55 | 43 | 56 | 0.00 | -67 | 8 | 09/10/2025 05:30 AM |
| 51571 | 14.6 | 3.99 | -5 | 55 | 44 | 56 | 0.10 | -67 | 8 | 09/10/2025 05:15 AM |